sensor_id;sensor_type;location;lat;lon;timestamp;temperature;humidity
9640;DHT22;51745;50.872;4.732;2022-09-13T00:00:16;17.10;99.90
9640;DHT22;51745;50.872;4.732;2022-09-13T00:03:05;17.10;99.90
9640;DHT22;51745;50.872;4.732;2022-09-13T00:05:52;17.10;99.90
9640;DHT22;51745;50.872;4.732;2022-09-13T00:08:41;17.10;99.90
9640;DHT22;51745;50.872;4.732;2022-09-13T00:11:29;17.00;99.90
9640;DHT22;51745;50.872;4.732;2022-09-13T00:14:17;17.00;99.90
9640;DHT22;51745;50.872;4.732;2022-09-13T00:17:05;17.00;99.90
9640;DHT22;51745;50.872;4.732;2022-09-13T00:19:53;16.90;99.90
9640;DHT22;51745;50.872;4.732;2022-09-13T00:22:41;16.90;99.90
9640;DHT22;51745;50.872;4.732;2022-09-13T00:25:31;17.00;99.90
9640;DHT22;51745;50.872;4.732;2022-09-13T00:28:19;16.90;99.90
9640;DHT22;51745;50.872;4.732;2022-09-13T00:31:08;16.90;99.90
9640;DHT22;51745;50.872;4.732;2022-09-13T00:33:57;17.00;99.90
9640;DHT22;51745;50.872;4.732;2022-09-13T00:36:45;17.10;99.90
9640;DHT22;51745;50.872;4.732;2022-09-13T00:39:33;17.00;99.90
9640;DHT22;51745;50.872;4.732;2022-09-13T00:42:24;17.00;99.90
9640;DHT22;51745;50.872;4.732;2022-09-13T00:45:14;16.00;99.90
9640;DHT22;51745;50.872;4.732;2022-09-13T00:48:03;17.00;99.90
9640;DHT22;51745;50.872;4.732;2022-09-13T00:50:53;17.00;99.90
9640;DHT22;51745;50.872;4.732;2022-09-13T00:53:43;17.00;99.90
9640;DHT22;51745;50.872;4.732;2022-09-13T00:56:33;17.00;99.90
9640;DHT22;51745;50.872;4.732;2022-09-13T00:59:26;18.60;99.90
9640;DHT22;51745;50.872;4.732;2022-09-13T01:02:14;16.90;99.90
9640;DHT22;51745;50.872;4.732;2022-09-13T01:05:03;16.90;99.90
9640;DHT22;51745;50.872;4.732;2022-09-13T01:07:50;17.00;99.90
9640;DHT22;51745;50.872;4.732;2022-09-13T01:10:38;16.90;99.90
9640;DHT22;51745;50.872;4.732;2022-09-13T01:13:27;16.90;99.90
9640;DHT22;51745;50.872;4.732;2022-09-13T01:16:18;16.90;99.90
9640;DHT22;51745;50.872;4.732;2022-09-13T01:19:05;16.90;99.90
9640;DHT22;51745;50.872;4.732;2022-09-13T01:28:24;16.80;99.90
9640;DHT22;51745;50.872;4.732;2022-09-13T01:31:20;16.80;99.90
9640;DHT22;51745;50.872;4.732;2022-09-13T01:34:19;16.90;99.90
9640;DHT22;51745;50.872;4.732;2022-09-13T01:37:18;16.90;99.90
9640;DHT22;51745;50.872;4.732;2022-09-13T01:40:13;16.90;99.90
9640;DHT22;51745;50.872;4.732;2022-09-13T01:43:10;16.90;99.90
9640;DHT22;51745;50.872;4.732;2022-09-13T01:46:03;16.90;99.90
9640;DHT22;51745;50.872;4.732;2022-09-13T01:48:56;16.90;99.90
9640;DHT22;51745;50.872;4.732;2022-09-13T01:51:48;17.00;99.90
9640;DHT22;51745;50.872;4.732;2022-09-13T01:54:39;17.20;99.90
9640;DHT22;51745;50.872;4.732;2022-09-13T01:57:34;17.00;99.90
9640;DHT22;51745;50.872;4.732;2022-09-13T02:00:23;17.00;99.90
9640;DHT22;51745;50.872;4.732;2022-09-13T02:03:11;17.00;99.90
9640;DHT22;51745;50.872;4.732;2022-09-13T02:06:04;17.00;99.90
9640;DHT22;51745;50.872;4.732;2022-09-13T02:08:53;17.00;99.90
9640;DHT22;51745;50.872;4.732;2022-09-13T02:11:43;17.00;99.90
9640;DHT22;51745;50.872;4.732;2022-09-13T02:14:33;17.10;99.90
9640;DHT22;51745;50.872;4.732;2022-09-13T02:17:25;17.10;99.90
9640;DHT22;51745;50.872;4.732;2022-09-13T02:20:16;17.00;99.90
9640;DHT22;51745;50.872;4.732;2022-09-13T02:23:08;17.10;99.90
9640;DHT22;51745;50.872;4.732;2022-09-13T02:25:56;17.00;99.90
9640;DHT22;51745;50.872;4.732;2022-09-13T02:28:48;17.00;99.90
9640;DHT22;51745;50.872;4.732;2022-09-13T02:31:39;17.60;99.90
9640;DHT22;51745;50.872;4.732;2022-09-13T02:34:30;17.10;99.90
9640;DHT22;51745;50.872;4.732;2022-09-13T02:37:19;17.00;99.90
9640;DHT22;51745;50.872;4.732;2022-09-13T02:40:11;17.60;99.90
9640;DHT22;51745;50.872;4.732;2022-09-13T02:43:03;17.00;99.90
9640;DHT22;51745;50.872;4.732;2022-09-13T02:45:52;17.00;99.90
9640;DHT22;51745;50.872;4.732;2022-09-13T02:48:46;16.90;99.90
9640;DHT22;51745;50.872;4.732;2022-09-13T02:51:37;16.90;99.90
9640;DHT22;51745;50.872;4.732;2022-09-13T02:54:31;16.80;99.90
9640;DHT22;51745;50.872;4.732;2022-09-13T02:57:26;16.80;99.90
9640;DHT22;51745;50.872;4.732;2022-09-13T03:00:17;16.90;99.90
9640;DHT22;51745;50.872;4.732;2022-09-13T03:03:06;16.50;99.90
9640;DHT22;51745;50.872;4.732;2022-09-13T03:05:55;16.90;99.90
9640;DHT22;51745;50.872;4.732;2022-09-13T03:08:43;16.70;99.90
9640;DHT22;51745;50.872;4.732;2022-09-13T03:11:34;16.80;99.90
9640;DHT22;51745;50.872;4.732;2022-09-13T03:14:31;16.80;99.90
9640;DHT22;51745;50.872;4.732;2022-09-13T03:17:27;16.90;99.90
9640;DHT22;51745;50.872;4.732;2022-09-13T03:20:17;16.80;99.90
9640;DHT22;51745;50.872;4.732;2022-09-13T03:23:12;16.80;99.90
9640;DHT22;51745;50.872;4.732;2022-09-13T03:26:10;16.90;99.90
9640;DHT22;51745;50.872;4.732;2022-09-13T03:29:08;16.90;99.90
9640;DHT22;51745;50.872;4.732;2022-09-13T03:32:03;16.90;99.90
9640;DHT22;51745;50.872;4.732;2022-09-13T03:34:54;16.90;99.90
9640;DHT22;51745;50.872;4.732;2022-09-13T03:37:46;16.90;99.90
9640;DHT22;51745;50.872;4.732;2022-09-13T03:40:40;16.90;99.90
9640;DHT22;51745;50.872;4.732;2022-09-13T03:43:30;16.90;99.90
9640;DHT22;51745;50.872;4.732;2022-09-13T03:46:22;16.80;99.90
9640;DHT22;51745;50.872;4.732;2022-09-13T03:49:13;16.90;99.90
9640;DHT22;51745;50.872;4.732;2022-09-13T03:52:04;16.90;99.90
9640;DHT22;51745;50.872;4.732;2022-09-13T03:54:52;16.90;99.90
9640;DHT22;51745;50.872;4.732;2022-09-13T03:57:40;16.90;99.90
9640;DHT22;51745;50.872;4.732;2022-09-13T04:00:28;17.00;99.90
9640;DHT22;51745;50.872;4.732;2022-09-13T04:03:16;17.00;99.90
9640;DHT22;51745;50.872;4.732;2022-09-13T04:06:06;17.10;99.90
9640;DHT22;51745;50.872;4.732;2022-09-13T04:08:54;17.10;99.90
9640;DHT22;51745;50.872;4.732;2022-09-13T04:11:42;17.00;99.90
9640;DHT22;51745;50.872;4.732;2022-09-13T04:14:30;17.10;99.90
9640;DHT22;51745;50.872;4.732;2022-09-13T04:17:18;17.00;99.90
9640;DHT22;51745;50.872;4.732;2022-09-13T04:20:06;17.00;99.90
9640;DHT22;51745;50.872;4.732;2022-09-13T04:22:55;17.10;99.90
9640;DHT22;51745;50.872;4.732;2022-09-13T04:25:43;17.00;99.90
9640;DHT22;51745;50.872;4.732;2022-09-13T04:28:32;16.90;99.90
9640;DHT22;51745;50.872;4.732;2022-09-13T04:31:20;17.10;99.90
9640;DHT22;51745;50.872;4.732;2022-09-13T04:34:07;17.00;99.90
9640;DHT22;51745;50.872;4.732;2022-09-13T04:36:55;17.00;99.90
9640;DHT22;51745;50.872;4.732;2022-09-13T04:39:44;17.00;99.90
9640;DHT22;51745;50.872;4.732;2022-09-13T04:42:32;17.00;99.90
9640;DHT22;51745;50.872;4.732;2022-09-13T04:45:20;17.10;99.90
9640;DHT22;51745;50.872;4.732;2022-09-13T04:48:08;17.00;99.90
9640;DHT22;51745;50.872;4.732;2022-09-13T04:50:59;17.10;99.90
9640;DHT22;51745;50.872;4.732;2022-09-13T04:53:50;17.10;99.90
9640;DHT22;51745;50.872;4.732;2022-09-13T04:56:40;17.10;99.90
9640;DHT22;51745;50.872;4.732;2022-09-13T04:59:28;17.10;99.90
9640;DHT22;51745;50.872;4.732;2022-09-13T05:02:16;17.10;99.90
9640;DHT22;51745;50.872;4.732;2022-09-13T05:05:04;17.30;99.90
9640;DHT22;51745;50.872;4.732;2022-09-13T05:07:53;17.10;99.90
9640;DHT22;51745;50.872;4.732;2022-09-13T05:10:41;17.00;99.90
9640;DHT22;51745;50.872;4.732;2022-09-13T05:13:31;17.00;99.90
9640;DHT22;51745;50.872;4.732;2022-09-13T05:16:19;17.10;99.90
9640;DHT22;51745;50.872;4.732;2022-09-13T05:19:07;17.00;99.90
9640;DHT22;51745;50.872;4.732;2022-09-13T05:21:55;16.90;99.90
9640;DHT22;51745;50.872;4.732;2022-09-13T05:24:43;17.10;99.90
9640;DHT22;51745;50.872;4.732;2022-09-13T05:27:30;17.00;99.90
9640;DHT22;51745;50.872;4.732;2022-09-13T05:30:20;17.00;99.90
9640;DHT22;51745;50.872;4.732;2022-09-13T05:33:09;17.00;99.90
9640;DHT22;51745;50.872;4.732;2022-09-13T05:35:56;17.10;99.90
9640;DHT22;51745;50.872;4.732;2022-09-13T05:38:44;17.10;99.90
9640;DHT22;51745;50.872;4.732;2022-09-13T05:41:32;17.10;99.90
9640;DHT22;51745;50.872;4.732;2022-09-13T05:44:20;17.20;99.90
9640;DHT22;51745;50.872;4.732;2022-09-13T05:47:10;17.10;99.90
9640;DHT22;51745;50.872;4.732;2022-09-13T05:49:59;17.20;99.90
9640;DHT22;51745;50.872;4.732;2022-09-13T05:53:01;17.10;99.90
9640;DHT22;51745;50.872;4.732;2022-09-13T05:55:49;17.10;99.90
9640;DHT22;51745;50.872;4.732;2022-09-13T05:58:38;17.10;99.90
9640;DHT22;51745;50.872;4.732;2022-09-13T06:01:27;17.10;99.90
9640;DHT22;51745;50.872;4.732;2022-09-13T06:04:17;17.70;99.90
9640;DHT22;51745;50.872;4.732;2022-09-13T06:07:05;17.10;99.90
9640;DHT22;51745;50.872;4.732;2022-09-13T06:09:53;17.10;99.90
9640;DHT22;51745;50.872;4.732;2022-09-13T06:12:40;17.10;99.90
9640;DHT22;51745;50.872;4.732;2022-09-13T06:15:33;17.20;99.90
9640;DHT22;51745;50.872;4.732;2022-09-13T06:18:26;17.20;99.90
9640;DHT22;51745;50.872;4.732;2022-09-13T06:21:16;17.20;99.90
9640;DHT22;51745;50.872;4.732;2022-09-13T06:24:04;17.30;99.90
9640;DHT22;51745;50.872;4.732;2022-09-13T06:26:53;17.30;99.90
9640;DHT22;51745;50.872;4.732;2022-09-13T06:29:40;17.30;99.90
9640;DHT22;51745;50.872;4.732;2022-09-13T06:32:28;16.90;99.90
9640;DHT22;51745;50.872;4.732;2022-09-13T06:35:16;17.30;99.90
9640;DHT22;51745;50.872;4.732;2022-09-13T06:38:06;17.30;99.90
9640;DHT22;51745;50.872;4.732;2022-09-13T06:41:00;17.40;99.90
9640;DHT22;51745;50.872;4.732;2022-09-13T06:43:51;17.40;99.90
9640;DHT22;51745;50.872;4.732;2022-09-13T06:46:39;17.40;99.90
9640;DHT22;51745;50.872;4.732;2022-09-13T06:49:27;17.50;99.90
9640;DHT22;51745;50.872;4.732;2022-09-13T06:52:19;17.50;99.90
9640;DHT22;51745;50.872;4.732;2022-09-13T06:55:09;17.60;99.90
9640;DHT22;51745;50.872;4.732;2022-09-13T06:57:58;17.70;99.90
9640;DHT22;51745;50.872;4.732;2022-09-13T07:00:45;17.80;99.90
9640;DHT22;51745;50.872;4.732;2022-09-13T07:03:33;18.00;99.90
9640;DHT22;51745;50.872;4.732;2022-09-13T07:06:22;18.00;99.90
9640;DHT22;51745;50.872;4.732;2022-09-13T07:09:11;18.10;99.90
9640;DHT22;51745;50.872;4.732;2022-09-13T07:12:01;18.20;99.90
9640;DHT22;51745;50.872;4.732;2022-09-13T07:14:51;18.40;99.90
9640;DHT22;51745;50.872;4.732;2022-09-13T07:17:39;18.50;99.90
9640;DHT22;51745;50.872;4.732;2022-09-13T07:20:27;18.50;99.90
9640;DHT22;51745;50.872;4.732;2022-09-13T07:23:15;18.70;99.90
9640;DHT22;51745;50.872;4.732;2022-09-13T07:26:03;18.80;99.90
9640;DHT22;51745;50.872;4.732;2022-09-13T07:28:53;18.90;99.90
9640;DHT22;51745;50.872;4.732;2022-09-13T07:31:42;19.10;99.90
9640;DHT22;51745;50.872;4.732;2022-09-13T07:34:31;19.20;99.90
9640;DHT22;51745;50.872;4.732;2022-09-13T07:37:18;19.40;99.90
9640;DHT22;51745;50.872;4.732;2022-09-13T07:40:07;19.60;99.90
9640;DHT22;51745;50.872;4.732;2022-09-13T07:42:55;19.70;99.90
9640;DHT22;51745;50.872;4.732;2022-09-13T07:45:45;20.00;99.90
9640;DHT22;51745;50.872;4.732;2022-09-13T07:48:34;19.90;99.90
9640;DHT22;51745;50.872;4.732;2022-09-13T07:51:23;19.90;99.90
9640;DHT22;51745;50.872;4.732;2022-09-13T07:54:13;20.00;99.90
9640;DHT22;51745;50.872;4.732;2022-09-13T07:57:02;20.10;99.90
9640;DHT22;51745;50.872;4.732;2022-09-13T07:59:53;20.20;99.90
9640;DHT22;51745;50.872;4.732;2022-09-13T08:02:43;20.30;99.90
9640;DHT22;51745;50.872;4.732;2022-09-13T08:05:37;20.30;99.90
9640;DHT22;51745;50.872;4.732;2022-09-13T08:08:24;20.30;99.90
9640;DHT22;51745;50.872;4.732;2022-09-13T08:11:14;20.30;99.90
9640;DHT22;51745;50.872;4.732;2022-09-13T08:14:03;20.30;99.90
9640;DHT22;51745;50.872;4.732;2022-09-13T08:16:53;20.30;99.90
9640;DHT22;51745;50.872;4.732;2022-09-13T08:19:43;20.20;99.90
9640;DHT22;51745;50.872;4.732;2022-09-13T08:22:31;20.20;99.90
9640;DHT22;51745;50.872;4.732;2022-09-13T08:25:18;20.20;99.90
9640;DHT22;51745;50.872;4.732;2022-09-13T08:28:07;20.10;99.90
9640;DHT22;51745;50.872;4.732;2022-09-13T08:30:55;20.30;99.90
9640;DHT22;51745;50.872;4.732;2022-09-13T08:33:44;20.40;99.90
9640;DHT22;51745;50.872;4.732;2022-09-13T08:36:34;20.40;99.90
9640;DHT22;51745;50.872;4.732;2022-09-13T08:39:22;20.50;99.90
9640;DHT22;51745;50.872;4.732;2022-09-13T08:42:15;20.70;99.90
9640;DHT22;51745;50.872;4.732;2022-09-13T08:45:08;20.80;99.90
9640;DHT22;51745;50.872;4.732;2022-09-13T08:47:57;20.80;99.90
9640;DHT22;51745;50.872;4.732;2022-09-13T08:50:51;21.00;99.90
9640;DHT22;51745;50.872;4.732;2022-09-13T08:53:42;21.20;99.90
9640;DHT22;51745;50.872;4.732;2022-09-13T08:56:34;21.20;99.90
9640;DHT22;51745;50.872;4.732;2022-09-13T08:59:31;21.30;99.90
9640;DHT22;51745;50.872;4.732;2022-09-13T09:02:28;21.30;99.90
9640;DHT22;51745;50.872;4.732;2022-09-13T09:05:24;21.30;99.90
9640;DHT22;51745;50.872;4.732;2022-09-13T09:08:22;21.40;99.90
9640;DHT22;51745;50.872;4.732;2022-09-13T09:11:18;21.50;99.90
9640;DHT22;51745;50.872;4.732;2022-09-13T09:14:13;21.70;99.90
9640;DHT22;51745;50.872;4.732;2022-09-13T09:17:04;21.70;99.90
9640;DHT22;51745;50.872;4.732;2022-09-13T09:19:56;21.80;99.90
9640;DHT22;51745;50.872;4.732;2022-09-13T09:22:47;21.20;99.90
9640;DHT22;51745;50.872;4.732;2022-09-13T09:25:36;22.00;99.90
9640;DHT22;51745;50.872;4.732;2022-09-13T09:28:26;22.00;99.90
9640;DHT22;51745;50.872;4.732;2022-09-13T09:31:18;22.10;99.90
9640;DHT22;51745;50.872;4.732;2022-09-13T09:34:12;22.10;99.90
9640;DHT22;51745;50.872;4.732;2022-09-13T09:37:06;23.10;99.90
9640;DHT22;51745;50.872;4.732;2022-09-13T09:39:57;22.20;99.90
9640;DHT22;51745;50.872;4.732;2022-09-13T09:42:49;22.30;99.90
9640;DHT22;51745;50.872;4.732;2022-09-13T09:45:39;22.50;99.90
9640;DHT22;51745;50.872;4.732;2022-09-13T09:48:29;22.60;99.90
9640;DHT22;51745;50.872;4.732;2022-09-13T09:51:22;22.70;99.90
9640;DHT22;51745;50.872;4.732;2022-09-13T09:54:13;22.80;99.90
9640;DHT22;51745;50.872;4.732;2022-09-13T09:57:02;22.90;99.90
9640;DHT22;51745;50.872;4.732;2022-09-13T09:59:55;23.00;99.90
9640;DHT22;51745;50.872;4.732;2022-09-13T10:03:01;23.10;99.90
9640;DHT22;51745;50.872;4.732;2022-09-13T10:05:50;23.20;99.90
9640;DHT22;51745;50.872;4.732;2022-09-13T10:08:53;23.30;99.90
9640;DHT22;51745;50.872;4.732;2022-09-13T10:11:43;23.40;99.90
9640;DHT22;51745;50.872;4.732;2022-09-13T10:14:36;23.50;99.90
9640;DHT22;51745;50.872;4.732;2022-09-13T10:17:25;23.40;99.90
9640;DHT22;51745;50.872;4.732;2022-09-13T10:20:20;24.10;99.90
9640;DHT22;51745;50.872;4.732;2022-09-13T10:23:18;23.60;99.90
9640;DHT22;51745;50.872;4.732;2022-09-13T10:26:08;23.50;99.90
9640;DHT22;51745;50.872;4.732;2022-09-13T10:28:58;23.90;99.90
9640;DHT22;51745;50.872;4.732;2022-09-13T10:31:47;23.70;99.90
9640;DHT22;51745;50.872;4.732;2022-09-13T10:34:40;23.70;99.90
9640;DHT22;51745;50.872;4.732;2022-09-13T10:37:31;23.70;99.90
9640;DHT22;51745;50.872;4.732;2022-09-13T10:40:23;23.70;99.90
9640;DHT22;51745;50.872;4.732;2022-09-13T10:43:13;23.70;99.90
9640;DHT22;51745;50.872;4.732;2022-09-13T10:46:05;23.50;99.90
9640;DHT22;51745;50.872;4.732;2022-09-13T10:48:57;23.50;99.90
9640;DHT22;51745;50.872;4.732;2022-09-13T10:51:45;23.60;99.90
9640;DHT22;51745;50.872;4.732;2022-09-13T10:54:35;23.60;99.90
9640;DHT22;51745;50.872;4.732;2022-09-13T10:57:30;23.60;99.90
9640;DHT22;51745;50.872;4.732;2022-09-13T11:00:19;23.60;99.90
9640;DHT22;51745;50.872;4.732;2022-09-13T11:03:11;23.20;99.90
9640;DHT22;51745;50.872;4.732;2022-09-13T11:06:04;24.70;99.90
9640;DHT22;51745;50.872;4.732;2022-09-13T11:08:55;24.00;99.90
9640;DHT22;51745;50.872;4.732;2022-09-13T11:11:50;24.00;99.90
9640;DHT22;51745;50.872;4.732;2022-09-13T11:14:43;23.90;99.90
9640;DHT22;51745;50.872;4.732;2022-09-13T11:17:37;23.90;99.90
9640;DHT22;51745;50.872;4.732;2022-09-13T11:20:32;24.10;99.90
9640;DHT22;51745;50.872;4.732;2022-09-13T11:23:30;24.10;99.90
9640;DHT22;51745;50.872;4.732;2022-09-13T11:26:25;24.20;99.90
9640;DHT22;51745;50.872;4.732;2022-09-13T11:29:23;24.30;99.90
9640;DHT22;51745;50.872;4.732;2022-09-13T11:32:18;24.30;99.90
9640;DHT22;51745;50.872;4.732;2022-09-13T11:38:31;24.40;99.90
9640;DHT22;51745;50.872;4.732;2022-09-13T11:41:30;24.50;99.90
9640;DHT22;51745;50.872;4.732;2022-09-13T11:44:31;24.40;99.90
9640;DHT22;51745;50.872;4.732;2022-09-13T11:47:29;24.20;99.90
9640;DHT22;51745;50.872;4.732;2022-09-13T11:50:25;24.20;99.90
9640;DHT22;51745;50.872;4.732;2022-09-13T11:53:23;24.30;99.90
9640;DHT22;51745;50.872;4.732;2022-09-13T11:56:16;24.50;99.90
9640;DHT22;51745;50.872;4.732;2022-09-13T11:59:14;24.40;99.90
9640;DHT22;51745;50.872;4.732;2022-09-13T12:02:09;24.30;99.90
9640;DHT22;51745;50.872;4.732;2022-09-13T12:05:00;24.30;99.90
9640;DHT22;51745;50.872;4.732;2022-09-13T12:08:10;24.40;99.90
9640;DHT22;51745;50.872;4.732;2022-09-13T12:11:03;24.30;99.90
9640;DHT22;51745;50.872;4.732;2022-09-13T12:13:59;24.30;99.90
9640;DHT22;51745;50.872;4.732;2022-09-13T12:16:50;24.30;99.90
9640;DHT22;51745;50.872;4.732;2022-09-13T12:19:44;24.30;99.90
9640;DHT22;51745;50.872;4.732;2022-09-13T12:22:35;24.20;99.90
9640;DHT22;51745;50.872;4.732;2022-09-13T12:25:27;24.40;99.90
9640;DHT22;51745;50.872;4.732;2022-09-13T12:28:21;24.40;99.90
9640;DHT22;51745;50.872;4.732;2022-09-13T12:31:10;24.30;99.90
9640;DHT22;51745;50.872;4.732;2022-09-13T12:33:59;24.30;99.90
9640;DHT22;51745;50.872;4.732;2022-09-13T12:36:59;24.30;99.90
9640;DHT22;51745;50.872;4.732;2022-09-13T12:39:52;24.20;99.90
9640;DHT22;51745;50.872;4.732;2022-09-13T12:42:56;24.10;99.90
9640;DHT22;51745;50.872;4.732;2022-09-13T12:49:09;24.00;99.90
9640;DHT22;51745;50.872;4.732;2022-09-13T12:52:11;24.00;99.90
9640;DHT22;51745;50.872;4.732;2022-09-13T12:58:38;24.00;99.90
9640;DHT22;51745;50.872;4.732;2022-09-13T13:01:31;23.90;99.90
9640;DHT22;51745;50.872;4.732;2022-09-13T13:04:21;23.80;99.90
9640;DHT22;51745;50.872;4.732;2022-09-13T13:07:17;23.80;99.90
9640;DHT22;51745;50.872;4.732;2022-09-13T13:10:20;23.80;99.90
9640;DHT22;51745;50.872;4.732;2022-09-13T13:13:11;23.80;99.90
9640;DHT22;51745;50.872;4.732;2022-09-13T13:16:02;24.00;99.90
9640;DHT22;51745;50.872;4.732;2022-09-13T13:18:55;23.70;99.90
9640;DHT22;51745;50.872;4.732;2022-09-13T13:21:46;23.60;99.90
9640;DHT22;51745;50.872;4.732;2022-09-13T13:24:41;23.60;99.90
9640;DHT22;51745;50.872;4.732;2022-09-13T13:27:40;23.30;99.90
9640;DHT22;51745;50.872;4.732;2022-09-13T13:33:46;22.90;99.90
9640;DHT22;51745;50.872;4.732;2022-09-13T13:36:42;22.80;99.90
9640;DHT22;51745;50.872;4.732;2022-09-13T13:39:32;22.70;99.90
9640;DHT22;51745;50.872;4.732;2022-09-13T13:42:25;22.60;99.90
9640;DHT22;51745;50.872;4.732;2022-09-13T13:45:18;22.50;99.90
9640;DHT22;51745;50.872;4.732;2022-09-13T13:48:11;22.40;99.90
9640;DHT22;51745;50.872;4.732;2022-09-13T13:51:14;22.20;99.90
9640;DHT22;51745;50.872;4.732;2022-09-13T13:54:27;22.10;99.90
9640;DHT22;51745;50.872;4.732;2022-09-13T13:57:20;22.00;99.90
9640;DHT22;51745;50.872;4.732;2022-09-13T14:00:14;22.00;99.90
9640;DHT22;51745;50.872;4.732;2022-09-13T14:03:07;22.00;99.90
9640;DHT22;51745;50.872;4.732;2022-09-13T14:05:59;22.00;99.90
9640;DHT22;51745;50.872;4.732;2022-09-13T14:08:54;21.80;99.90
9640;DHT22;51745;50.872;4.732;2022-09-13T14:11:49;22.00;99.90
9640;DHT22;51745;50.872;4.732;2022-09-13T14:14:49;22.00;99.90
9640;DHT22;51745;50.872;4.732;2022-09-13T14:17:58;21.90;99.90
9640;DHT22;51745;50.872;4.732;2022-09-13T14:20:56;21.90;99.90
9640;DHT22;51745;50.872;4.732;2022-09-13T14:23:44;21.80;99.90
9640;DHT22;51745;50.872;4.732;2022-09-13T14:26:32;21.80;99.90
9640;DHT22;51745;50.872;4.732;2022-09-13T14:29:23;21.80;99.90
9640;DHT22;51745;50.872;4.732;2022-09-13T14:32:12;21.80;99.90
9640;DHT22;51745;50.872;4.732;2022-09-13T14:35:03;21.90;99.90
9640;DHT22;51745;50.872;4.732;2022-09-13T14:37:52;22.70;99.90
9640;DHT22;51745;50.872;4.732;2022-09-13T14:40:45;21.70;99.90
9640;DHT22;51745;50.872;4.732;2022-09-13T14:43:33;21.60;99.90
9640;DHT22;51745;50.872;4.732;2022-09-13T14:46:22;21.50;99.90
9640;DHT22;51745;50.872;4.732;2022-09-13T14:49:13;21.50;99.90
9640;DHT22;51745;50.872;4.732;2022-09-13T14:52:06;21.40;99.90
9640;DHT22;51745;50.872;4.732;2022-09-13T14:54:56;21.40;99.90
9640;DHT22;51745;50.872;4.732;2022-09-13T14:57:45;21.40;99.90
9640;DHT22;51745;50.872;4.732;2022-09-13T15:00:37;21.30;99.90
9640;DHT22;51745;50.872;4.732;2022-09-13T15:03:31;21.10;99.90
9640;DHT22;51745;50.872;4.732;2022-09-13T15:06:21;21.20;99.90
9640;DHT22;51745;50.872;4.732;2022-09-13T15:09:15;21.10;99.90
9640;DHT22;51745;50.872;4.732;2022-09-13T15:12:17;21.00;99.90
9640;DHT22;51745;50.872;4.732;2022-09-13T15:18:28;20.60;99.90
9640;DHT22;51745;50.872;4.732;2022-09-13T15:21:22;20.40;99.90
9640;DHT22;51745;50.872;4.732;2022-09-13T15:24:15;20.30;99.90
9640;DHT22;51745;50.872;4.732;2022-09-13T15:27:06;20.20;99.90
9640;DHT22;51745;50.872;4.732;2022-09-13T15:29:55;20.10;99.90
9640;DHT22;51745;50.872;4.732;2022-09-13T15:32:43;20.30;99.90
9640;DHT22;51745;50.872;4.732;2022-09-13T15:35:34;20.00;99.90
9640;DHT22;51745;50.872;4.732;2022-09-13T15:38:25;20.00;99.90
9640;DHT22;51745;50.872;4.732;2022-09-13T15:41:16;20.00;99.90
9640;DHT22;51745;50.872;4.732;2022-09-13T15:44:05;20.00;99.90
9640;DHT22;51745;50.872;4.732;2022-09-13T15:46:55;20.10;99.90
9640;DHT22;51745;50.872;4.732;2022-09-13T15:49:46;19.90;99.90
9640;DHT22;51745;50.872;4.732;2022-09-13T15:52:35;19.90;99.90
9640;DHT22;51745;50.872;4.732;2022-09-13T15:55:22;19.90;99.90
9640;DHT22;51745;50.872;4.732;2022-09-13T15:58:12;19.80;99.90
9640;DHT22;51745;50.872;4.732;2022-09-13T16:01:00;19.90;99.90
9640;DHT22;51745;50.872;4.732;2022-09-13T16:03:48;19.90;99.90
9640;DHT22;51745;50.872;4.732;2022-09-13T16:06:37;19.80;99.90
9640;DHT22;51745;50.872;4.732;2022-09-13T16:09:25;19.90;99.90
9640;DHT22;51745;50.872;4.732;2022-09-13T16:12:14;19.90;99.90
9640;DHT22;51745;50.872;4.732;2022-09-13T16:15:06;20.10;99.90
9640;DHT22;51745;50.872;4.732;2022-09-13T16:17:55;20.10;99.90
9640;DHT22;51745;50.872;4.732;2022-09-13T16:20:43;20.00;99.90
9640;DHT22;51745;50.872;4.732;2022-09-13T16:23:31;19.70;99.90
9640;DHT22;51745;50.872;4.732;2022-09-13T16:26:19;20.00;99.90
9640;DHT22;51745;50.872;4.732;2022-09-13T16:29:08;20.00;99.90
9640;DHT22;51745;50.872;4.732;2022-09-13T16:31:58;20.00;99.90
9640;DHT22;51745;50.872;4.732;2022-09-13T16:34:47;20.00;99.90
9640;DHT22;51745;50.872;4.732;2022-09-13T16:37:34;20.00;99.90
9640;DHT22;51745;50.872;4.732;2022-09-13T16:40:23;19.90;99.90
9640;DHT22;51745;50.872;4.732;2022-09-13T16:43:13;19.90;99.90
9640;DHT22;51745;50.872;4.732;2022-09-13T16:46:04;19.90;99.90
9640;DHT22;51745;50.872;4.732;2022-09-13T16:48:54;19.90;99.90
9640;DHT22;51745;50.872;4.732;2022-09-13T16:51:42;19.80;99.90
9640;DHT22;51745;50.872;4.732;2022-09-13T16:54:30;19.80;99.90
9640;DHT22;51745;50.872;4.732;2022-09-13T16:57:19;19.70;99.90
9640;DHT22;51745;50.872;4.732;2022-09-13T17:00:08;19.70;99.90
9640;DHT22;51745;50.872;4.732;2022-09-13T17:02:57;19.70;99.90
9640;DHT22;51745;50.872;4.732;2022-09-13T17:05:52;19.60;99.90
9640;DHT22;51745;50.872;4.732;2022-09-13T17:08:45;19.50;99.90
9640;DHT22;51745;50.872;4.732;2022-09-13T17:11:34;19.40;99.90
9640;DHT22;51745;50.872;4.732;2022-09-13T17:14:21;19.30;99.90
9640;DHT22;51745;50.872;4.732;2022-09-13T17:17:09;19.30;99.90
9640;DHT22;51745;50.872;4.732;2022-09-13T17:19:58;19.30;99.90
9640;DHT22;51745;50.872;4.732;2022-09-13T17:22:47;19.20;99.90
9640;DHT22;51745;50.872;4.732;2022-09-13T17:25:35;19.00;99.90
9640;DHT22;51745;50.872;4.732;2022-09-13T17:28:22;19.00;99.90
9640;DHT22;51745;50.872;4.732;2022-09-13T17:31:10;18.80;99.90
9640;DHT22;51745;50.872;4.732;2022-09-13T17:33:58;18.80;99.90
9640;DHT22;51745;50.872;4.732;2022-09-13T17:36:46;18.70;99.90
9640;DHT22;51745;50.872;4.732;2022-09-13T17:39:38;18.60;99.90
9640;DHT22;51745;50.872;4.732;2022-09-13T17:42:25;18.60;99.90
9640;DHT22;51745;50.872;4.732;2022-09-13T17:45:13;18.50;99.90
9640;DHT22;51745;50.872;4.732;2022-09-13T17:48:01;18.40;99.90
9640;DHT22;51745;50.872;4.732;2022-09-13T17:50:53;18.30;99.90
9640;DHT22;51745;50.872;4.732;2022-09-13T17:53:47;18.10;99.90
9640;DHT22;51745;50.872;4.732;2022-09-13T17:56:38;18.10;99.90
9640;DHT22;51745;50.872;4.732;2022-09-13T17:59:26;17.90;99.90
9640;DHT22;51745;50.872;4.732;2022-09-13T18:02:14;17.70;99.90
9640;DHT22;51745;50.872;4.732;2022-09-13T18:05:03;17.50;99.90
9640;DHT22;51745;50.872;4.732;2022-09-13T18:07:56;17.60;99.90
9640;DHT22;51745;50.872;4.732;2022-09-13T18:10:44;17.60;99.90
9640;DHT22;51745;50.872;4.732;2022-09-13T18:13:54;17.50;99.90
9640;DHT22;51745;50.872;4.732;2022-09-13T18:16:42;17.80;99.90
9640;DHT22;51745;50.872;4.732;2022-09-13T18:19:30;17.60;99.90
9640;DHT22;51745;50.872;4.732;2022-09-13T18:22:31;17.60;99.90
9640;DHT22;51745;50.872;4.732;2022-09-13T18:25:19;17.70;99.90
9640;DHT22;51745;50.872;4.732;2022-09-13T18:28:09;17.60;99.90
9640;DHT22;51745;50.872;4.732;2022-09-13T18:30:59;17.60;99.90
9640;DHT22;51745;50.872;4.732;2022-09-13T18:33:53;17.60;99.90
9640;DHT22;51745;50.872;4.732;2022-09-13T18:36:41;18.10;99.90
9640;DHT22;51745;50.872;4.732;2022-09-13T18:39:29;17.60;99.90